sensor_id;sensor_type;location;lat;lon;timestamp;P1;durP1;ratioP1;P2;durP2;ratioP2
21297;SDS011;10808;48.010;11.326;2023-04-24T00:00:03;1.15;;;0.80;;
21297;SDS011;10808;48.010;11.326;2023-04-24T00:02:38;1.65;;;1.00;;
21297;SDS011;10808;48.010;11.326;2023-04-24T00:05:05;2.08;;;0.80;;
21297;SDS011;10808;48.010;11.326;2023-04-24T00:07:33;1.30;;;0.70;;
21297;SDS011;10808;48.010;11.326;2023-04-24T00:09:59;0.70;;;0.60;;
21297;SDS011;10808;48.010;11.326;2023-04-24T00:12:26;0.70;;;0.70;;
21297;SDS011;10808;48.010;11.326;2023-04-24T00:14:52;1.30;;;0.70;;
21297;SDS011;10808;48.010;11.326;2023-04-24T00:17:18;0.75;;;0.70;;
21297;SDS011;10808;48.010;11.326;2023-04-24T00:19:47;0.98;;;0.80;;
21297;SDS011;10808;48.010;11.326;2023-04-24T00:22:15;0.90;;;0.80;;
21297;SDS011;10808;48.010;11.326;2023-04-24T00:24:42;0.82;;;0.73;;
21297;SDS011;10808;48.010;11.326;2023-04-24T00:27:08;1.45;;;0.60;;
21297;SDS011;10808;48.010;11.326;2023-04-24T00:29:34;0.60;;;0.60;;
21297;SDS011;10808;48.010;11.326;2023-04-24T00:32:00;0.90;;;0.60;;
21297;SDS011;10808;48.010;11.326;2023-04-24T00:34:26;0.90;;;0.60;;
21297;SDS011;10808;48.010;11.326;2023-04-24T00:36:52;1.65;;;0.70;;
21297;SDS011;10808;48.010;11.326;2023-04-24T00:39:19;0.85;;;0.60;;
21297;SDS011;10808;48.010;11.326;2023-04-24T00:41:45;1.45;;;0.52;;
21297;SDS011;10808;48.010;11.326;2023-04-24T00:44:12;0.68;;;0.52;;
21297;SDS011;10808;48.010;11.326;2023-04-24T00:46:38;0.67;;;0.50;;
21297;SDS011;10808;48.010;11.326;2023-04-24T00:49:05;1.23;;;0.60;;
21297;SDS011;10808;48.010;11.326;2023-04-24T00:51:32;0.93;;;0.60;;
21297;SDS011;10808;48.010;11.326;2023-04-24T00:53:58;0.50;;;0.50;;
21297;SDS011;10808;48.010;11.326;2023-04-24T00:56:25;0.50;;;0.50;;
21297;SDS011;10808;48.010;11.326;2023-04-24T00:58:52;0.50;;;0.50;;
21297;SDS011;10808;48.010;11.326;2023-04-24T01:01:19;0.50;;;0.50;;
21297;SDS011;10808;48.010;11.326;2023-04-24T01:03:49;0.80;;;0.50;;
21297;SDS011;10808;48.010;11.326;2023-04-24T01:06:17;1.42;;;0.60;;
21297;SDS011;10808;48.010;11.326;2023-04-24T01:08:44;0.85;;;0.65;;
21297;SDS011;10808;48.010;11.326;2023-04-24T01:11:11;0.50;;;0.50;;
21297;SDS011;10808;48.010;11.326;2023-04-24T01:13:37;0.57;;;0.40;;
21297;SDS011;10808;48.010;11.326;2023-04-24T01:16:05;0.50;;;0.50;;
21297;SDS011;10808;48.010;11.326;2023-04-24T01:18:32;0.70;;;0.47;;
21297;SDS011;10808;48.010;11.326;2023-04-24T01:20:58;1.70;;;0.50;;
21297;SDS011;10808;48.010;11.326;2023-04-24T01:23:28;0.88;;;0.50;;
21297;SDS011;10808;48.010;11.326;2023-04-24T01:25:54;1.17;;;0.70;;
21297;SDS011;10808;48.010;11.326;2023-04-24T01:28:20;1.55;;;0.57;;
21297;SDS011;10808;48.010;11.326;2023-04-24T01:30:47;0.85;;;0.60;;
21297;SDS011;10808;48.010;11.326;2023-04-24T01:33:14;0.77;;;0.60;;
21297;SDS011;10808;48.010;11.326;2023-04-24T01:35:41;0.50;;;0.50;;
21297;SDS011;10808;48.010;11.326;2023-04-24T01:38:07;2.00;;;0.60;;
21297;SDS011;10808;48.010;11.326;2023-04-24T01:40:33;3.28;;;0.75;;
21297;SDS011;10808;48.010;11.326;2023-04-24T01:43:00;1.05;;;0.60;;
21297;SDS011;10808;48.010;11.326;2023-04-24T01:45:26;1.80;;;0.60;;
21297;SDS011;10808;48.010;11.326;2023-04-24T01:47:52;1.67;;;0.60;;
21297;SDS011;10808;48.010;11.326;2023-04-24T01:50:18;1.63;;;0.50;;
21297;SDS011;10808;48.010;11.326;2023-04-24T01:52:44;0.50;;;0.50;;
21297;SDS011;10808;48.010;11.326;2023-04-24T01:55:10;0.50;;;0.50;;
21297;SDS011;10808;48.010;11.326;2023-04-24T01:57:36;1.63;;;0.63;;
21297;SDS011;10808;48.010;11.326;2023-04-24T02:00:03;0.65;;;0.60;;
21297;SDS011;10808;48.010;11.326;2023-04-24T02:02:30;0.95;;;0.50;;
21297;SDS011;10808;48.010;11.326;2023-04-24T02:04:56;1.50;;;0.60;;
21297;SDS011;10808;48.010;11.326;2023-04-24T02:07:22;1.27;;;0.40;;
21297;SDS011;10808;48.010;11.326;2023-04-24T02:09:48;1.38;;;0.60;;
21297;SDS011;10808;48.010;11.326;2023-04-24T02:12:15;0.47;;;0.47;;
21297;SDS011;10808;48.010;11.326;2023-04-24T02:14:43;1.02;;;0.52;;
21297;SDS011;10808;48.010;11.326;2023-04-24T02:17:09;0.75;;;0.50;;
21297;SDS011;10808;48.010;11.326;2023-04-24T02:19:35;0.50;;;0.50;;
21297;SDS011;10808;48.010;11.326;2023-04-24T02:22:01;1.03;;;0.60;;
21297;SDS011;10808;48.010;11.326;2023-04-24T02:24:27;0.90;;;0.60;;
21297;SDS011;10808;48.010;11.326;2023-04-24T02:26:53;1.20;;;0.63;;
21297;SDS011;10808;48.010;11.326;2023-04-24T02:29:19;0.80;;;0.55;;
21297;SDS011;10808;48.010;11.326;2023-04-24T02:31:45;2.05;;;0.60;;
21297;SDS011;10808;48.010;11.326;2023-04-24T02:34:11;1.30;;;0.60;;
21297;SDS011;10808;48.010;11.326;2023-04-24T02:36:37;1.05;;;0.50;;
21297;SDS011;10808;48.010;11.326;2023-04-24T02:39:03;1.30;;;0.60;;
21297;SDS011;10808;48.010;11.326;2023-04-24T02:41:29;1.02;;;0.60;;
21297;SDS011;10808;48.010;11.326;2023-04-24T02:44:00;0.93;;;0.63;;
21297;SDS011;10808;48.010;11.326;2023-04-24T02:46:26;0.90;;;0.60;;
21297;SDS011;10808;48.010;11.326;2023-04-24T02:48:52;1.50;;;0.60;;
21297;SDS011;10808;48.010;11.326;2023-04-24T02:51:18;0.93;;;0.50;;
21297;SDS011;10808;48.010;11.326;2023-04-24T02:53:44;0.98;;;0.70;;
21297;SDS011;10808;48.010;11.326;2023-04-24T02:56:10;1.70;;;0.60;;
21297;SDS011;10808;48.010;11.326;2023-04-24T02:58:37;0.80;;;0.75;;
21297;SDS011;10808;48.010;11.326;2023-04-24T03:01:03;1.70;;;0.73;;
21297;SDS011;10808;48.010;11.326;2023-04-24T03:03:30;0.88;;;0.80;;
21297;SDS011;10808;48.010;11.326;2023-04-24T03:05:56;1.48;;;0.70;;
21297;SDS011;10808;48.010;11.326;2023-04-24T03:08:22;1.03;;;0.80;;
21297;SDS011;10808;48.010;11.326;2023-04-24T03:10:48;0.80;;;0.70;;
21297;SDS011;10808;48.010;11.326;2023-04-24T03:13:15;1.60;;;0.80;;
21297;SDS011;10808;48.010;11.326;2023-04-24T03:15:42;0.93;;;0.70;;
21297;SDS011;10808;48.010;11.326;2023-04-24T03:18:08;2.07;;;0.80;;
21297;SDS011;10808;48.010;11.326;2023-04-24T03:20:34;0.68;;;0.60;;
21297;SDS011;10808;48.010;11.326;2023-04-24T03:23:02;1.20;;;0.70;;
21297;SDS011;10808;48.010;11.326;2023-04-24T03:25:28;0.68;;;0.65;;
21297;SDS011;10808;48.010;11.326;2023-04-24T03:27:54;0.65;;;0.60;;
21297;SDS011;10808;48.010;11.326;2023-04-24T03:30:20;0.90;;;0.60;;
21297;SDS011;10808;48.010;11.326;2023-04-24T03:32:46;2.75;;;0.80;;
21297;SDS011;10808;48.010;11.326;2023-04-24T03:35:12;0.70;;;0.70;;
21297;SDS011;10808;48.010;11.326;2023-04-24T03:37:38;1.20;;;0.80;;
21297;SDS011;10808;48.010;11.326;2023-04-24T03:40:05;1.10;;;0.70;;
21297;SDS011;10808;48.010;11.326;2023-04-24T03:42:32;1.33;;;0.85;;
21297;SDS011;10808;48.010;11.326;2023-04-24T03:44:58;0.80;;;0.60;;
21297;SDS011;10808;48.010;11.326;2023-04-24T03:47:24;1.67;;;0.70;;
21297;SDS011;10808;48.010;11.326;2023-04-24T03:49:50;0.90;;;0.70;;
21297;SDS011;10808;48.010;11.326;2023-04-24T03:52:17;0.93;;;0.70;;
21297;SDS011;10808;48.010;11.326;2023-04-24T03:54:43;0.75;;;0.60;;
21297;SDS011;10808;48.010;11.326;2023-04-24T03:57:09;1.15;;;0.68;;
21297;SDS011;10808;48.010;11.326;2023-04-24T03:59:35;1.70;;;0.77;;
21297;SDS011;10808;48.010;11.326;2023-04-24T04:02:01;0.65;;;0.63;;
21297;SDS011;10808;48.010;11.326;2023-04-24T04:04:27;1.50;;;0.70;;
21297;SDS011;10808;48.010;11.326;2023-04-24T04:06:53;0.95;;;0.65;;
21297;SDS011;10808;48.010;11.326;2023-04-24T04:09:19;0.63;;;0.63;;
21297;SDS011;10808;48.010;11.326;2023-04-24T04:11:45;0.70;;;0.60;;
21297;SDS011;10808;48.010;11.326;2023-04-24T04:14:11;0.90;;;0.60;;
21297;SDS011;10808;48.010;11.326;2023-04-24T04:16:37;0.60;;;0.60;;
21297;SDS011;10808;48.010;11.326;2023-04-24T04:19:04;2.40;;;0.70;;
21297;SDS011;10808;48.010;11.326;2023-04-24T04:21:30;0.73;;;0.60;;
21297;SDS011;10808;48.010;11.326;2023-04-24T04:23:57;1.02;;;0.68;;
21297;SDS011;10808;48.010;11.326;2023-04-24T04:26:23;1.70;;;0.70;;
21297;SDS011;10808;48.010;11.326;2023-04-24T04:28:53;0.63;;;0.63;;
21297;SDS011;10808;48.010;11.326;2023-04-24T04:31:20;0.95;;;0.68;;
21297;SDS011;10808;48.010;11.326;2023-04-24T04:33:46;2.28;;;0.60;;
21297;SDS011;10808;48.010;11.326;2023-04-24T04:36:12;1.08;;;0.60;;
21297;SDS011;10808;48.010;11.326;2023-04-24T04:38:38;1.30;;;0.60;;
21297;SDS011;10808;48.010;11.326;2023-04-24T04:41:06;0.60;;;0.50;;
21297;SDS011;10808;48.010;11.326;2023-04-24T04:43:32;0.70;;;0.57;;
21297;SDS011;10808;48.010;11.326;2023-04-24T04:45:59;0.50;;;0.50;;
21297;SDS011;10808;48.010;11.326;2023-04-24T04:48:26;0.60;;;0.60;;
21297;SDS011;10808;48.010;11.326;2023-04-24T04:50:52;0.63;;;0.60;;
21297;SDS011;10808;48.010;11.326;2023-04-24T04:53:18;2.45;;;0.70;;
21297;SDS011;10808;48.010;11.326;2023-04-24T04:55:44;1.15;;;0.60;;
21297;SDS011;10808;48.010;11.326;2023-04-24T04:58:11;2.28;;;0.60;;
21297;SDS011;10808;48.010;11.326;2023-04-24T05:00:38;1.75;;;0.60;;
21297;SDS011;10808;48.010;11.326;2023-04-24T05:03:04;0.50;;;0.50;;
21297;SDS011;10808;48.010;11.326;2023-04-24T05:05:30;0.80;;;0.50;;
21297;SDS011;10808;48.010;11.326;2023-04-24T05:07:56;2.03;;;0.57;;
21297;SDS011;10808;48.010;11.326;2023-04-24T05:10:22;0.90;;;0.50;;
21297;SDS011;10808;48.010;11.326;2023-04-24T05:12:48;1.20;;;0.50;;
21297;SDS011;10808;48.010;11.326;2023-04-24T05:15:15;0.70;;;0.60;;
21297;SDS011;10808;48.010;11.326;2023-04-24T05:17:41;0.57;;;0.50;;
21297;SDS011;10808;48.010;11.326;2023-04-24T05:20:07;0.80;;;0.50;;
21297;SDS011;10808;48.010;11.326;2023-04-24T05:22:33;1.05;;;0.55;;
21297;SDS011;10808;48.010;11.326;2023-04-24T05:24:59;0.80;;;0.65;;
21297;SDS011;10808;48.010;11.326;2023-04-24T05:27:25;0.40;;;0.40;;
21297;SDS011;10808;48.010;11.326;2023-04-24T05:29:51;0.80;;;0.50;;
21297;SDS011;10808;48.010;11.326;2023-04-24T05:32:17;1.15;;;0.55;;
21297;SDS011;10808;48.010;11.326;2023-04-24T05:34:43;0.40;;;0.35;;
21297;SDS011;10808;48.010;11.326;2023-04-24T05:37:09;1.00;;;0.50;;
21297;SDS011;10808;48.010;11.326;2023-04-24T05:39:36;0.83;;;0.40;;
21297;SDS011;10808;48.010;11.326;2023-04-24T05:42:02;2.58;;;0.43;;
21297;SDS011;10808;48.010;11.326;2023-04-24T05:44:29;0.47;;;0.40;;
21297;SDS011;10808;48.010;11.326;2023-04-24T05:46:56;0.60;;;0.50;;
21297;SDS011;10808;48.010;11.326;2023-04-24T05:49:22;0.60;;;0.50;;
21297;SDS011;10808;48.010;11.326;2023-04-24T05:51:48;0.40;;;0.40;;
21297;SDS011;10808;48.010;11.326;2023-04-24T05:54:14;0.38;;;0.30;;
21297;SDS011;10808;48.010;11.326;2023-04-24T05:56:40;0.40;;;0.40;;
21297;SDS011;10808;48.010;11.326;2023-04-24T05:59:06;0.40;;;0.40;;
21297;SDS011;10808;48.010;11.326;2023-04-24T06:01:33;0.35;;;0.35;;
21297;SDS011;10808;48.010;11.326;2023-04-24T06:04:00;0.43;;;0.43;;
21297;SDS011;10808;48.010;11.326;2023-04-24T06:06:26;1.05;;;0.70;;
21297;SDS011;10808;48.010;11.326;2023-04-24T06:08:52;0.57;;;0.38;;
21297;SDS011;10808;48.010;11.326;2023-04-24T06:11:18;0.40;;;0.30;;
21297;SDS011;10808;48.010;11.326;2023-04-24T06:13:44;0.40;;;0.30;;
21297;SDS011;10808;48.010;11.326;2023-04-24T06:16:10;0.40;;;0.40;;
21297;SDS011;10808;48.010;11.326;2023-04-24T06:18:36;0.40;;;0.40;;
21297;SDS011;10808;48.010;11.326;2023-04-24T06:21:03;0.40;;;0.40;;
21297;SDS011;10808;48.010;11.326;2023-04-24T06:23:29;0.90;;;0.50;;
21297;SDS011;10808;48.010;11.326;2023-04-24T06:25:57;0.60;;;0.40;;
21297;SDS011;10808;48.010;11.326;2023-04-24T06:28:24;1.10;;;0.40;;
21297;SDS011;10808;48.010;11.326;2023-04-24T06:30:50;0.38;;;0.38;;
21297;SDS011;10808;48.010;11.326;2023-04-24T06:33:16;0.30;;;0.30;;
21297;SDS011;10808;48.010;11.326;2023-04-24T06:35:42;0.50;;;0.30;;
21297;SDS011;10808;48.010;11.326;2023-04-24T06:38:08;0.50;;;0.30;;
21297;SDS011;10808;48.010;11.326;2023-04-24T06:40:35;0.35;;;0.30;;
21297;SDS011;10808;48.010;11.326;2023-04-24T06:43:01;1.85;;;0.40;;
21297;SDS011;10808;48.010;11.326;2023-04-24T06:45:28;0.95;;;0.80;;
21297;SDS011;10808;48.010;11.326;2023-04-24T06:47:55;1.38;;;0.82;;
21297;SDS011;10808;48.010;11.326;2023-04-24T06:50:22;1.37;;;0.50;;
21297;SDS011;10808;48.010;11.326;2023-04-24T06:52:48;0.52;;;0.40;;
21297;SDS011;10808;48.010;11.326;2023-04-24T06:55:14;1.05;;;0.80;;
21297;SDS011;10808;48.010;11.326;2023-04-24T06:57:42;0.70;;;0.70;;
21297;SDS011;10808;48.010;11.326;2023-04-24T07:00:09;1.73;;;0.93;;
21297;SDS011;10808;48.010;11.326;2023-04-24T07:02:36;0.70;;;0.70;;
21297;SDS011;10808;48.010;11.326;2023-04-24T07:05:03;0.50;;;0.50;;
21297;SDS011;10808;48.010;11.326;2023-04-24T07:07:30;0.50;;;0.50;;
21297;SDS011;10808;48.010;11.326;2023-04-24T07:09:56;1.30;;;0.50;;
21297;SDS011;10808;48.010;11.326;2023-04-24T07:12:25;0.70;;;0.60;;
21297;SDS011;10808;48.010;11.326;2023-04-24T07:14:51;1.02;;;0.70;;
21297;SDS011;10808;48.010;11.326;2023-04-24T07:17:17;0.70;;;0.60;;
21297;SDS011;10808;48.010;11.326;2023-04-24T07:19:43;1.20;;;0.75;;
21297;SDS011;10808;48.010;11.326;2023-04-24T07:22:09;0.50;;;0.50;;
21297;SDS011;10808;48.010;11.326;2023-04-24T07:24:36;1.20;;;0.47;;
21297;SDS011;10808;48.010;11.326;2023-04-24T07:27:04;0.50;;;0.50;;
21297;SDS011;10808;48.010;11.326;2023-04-24T07:29:30;0.43;;;0.40;;
21297;SDS011;10808;48.010;11.326;2023-04-24T07:31:56;0.52;;;0.52;;
21297;SDS011;10808;48.010;11.326;2023-04-24T07:34:22;1.07;;;0.50;;
21297;SDS011;10808;48.010;11.326;2023-04-24T07:36:48;1.45;;;0.90;;
21297;SDS011;10808;48.010;11.326;2023-04-24T07:39:14;2.22;;;0.70;;
21297;SDS011;10808;48.010;11.326;2023-04-24T07:41:40;1.23;;;0.60;;
21297;SDS011;10808;48.010;11.326;2023-04-24T07:44:06;0.90;;;0.60;;
21297;SDS011;10808;48.010;11.326;2023-04-24T07:46:32;0.80;;;0.40;;
21297;SDS011;10808;48.010;11.326;2023-04-24T07:48:58;0.70;;;0.40;;
21297;SDS011;10808;48.010;11.326;2023-04-24T07:51:26;0.60;;;0.57;;
21297;SDS011;10808;48.010;11.326;2023-04-24T07:53:53;1.17;;;0.60;;
21297;SDS011;10808;48.010;11.326;2023-04-24T07:56:20;0.40;;;0.40;;
21297;SDS011;10808;48.010;11.326;2023-04-24T07:58:49;0.57;;;0.57;;
21297;SDS011;10808;48.010;11.326;2023-04-24T08:01:16;0.80;;;0.40;;
21297;SDS011;10808;48.010;11.326;2023-04-24T08:03:42;0.40;;;0.40;;
21297;SDS011;10808;48.010;11.326;2023-04-24T08:06:08;0.47;;;0.43;;
21297;SDS011;10808;48.010;11.326;2023-04-24T08:08:34;0.50;;;0.50;;
21297;SDS011;10808;48.010;11.326;2023-04-24T08:11:00;0.52;;;0.40;;
21297;SDS011;10808;48.010;11.326;2023-04-24T08:13:26;0.30;;;0.30;;
21297;SDS011;10808;48.010;11.326;2023-04-24T08:15:52;0.57;;;0.32;;
21297;SDS011;10808;48.010;11.326;2023-04-24T08:18:18;0.30;;;0.30;;
21297;SDS011;10808;48.010;11.326;2023-04-24T08:20:44;0.68;;;0.40;;
21297;SDS011;10808;48.010;11.326;2023-04-24T08:23:10;0.40;;;0.40;;
21297;SDS011;10808;48.010;11.326;2023-04-24T08:25:36;0.82;;;0.70;;
21297;SDS011;10808;48.010;11.326;2023-04-24T08:28:03;2.50;;;0.80;;
21297;SDS011;10808;48.010;11.326;2023-04-24T08:30:31;1.50;;;0.80;;
21297;SDS011;10808;48.010;11.326;2023-04-24T08:32:57;1.23;;;0.70;;
21297;SDS011;10808;48.010;11.326;2023-04-24T08:35:23;1.95;;;1.05;;
21297;SDS011;10808;48.010;11.326;2023-04-24T08:37:49;1.20;;;0.90;;
21297;SDS011;10808;48.010;11.326;2023-04-24T08:40:16;2.40;;;1.10;;
21297;SDS011;10808;48.010;11.326;2023-04-24T08:42:42;1.48;;;0.98;;
21297;SDS011;10808;48.010;11.326;2023-04-24T08:45:12;1.55;;;1.13;;
21297;SDS011;10808;48.010;11.326;2023-04-24T08:47:39;1.30;;;1.00;;
21297;SDS011;10808;48.010;11.326;2023-04-24T08:50:06;1.50;;;1.00;;
21297;SDS011;10808;48.010;11.326;2023-04-24T08:52:33;1.40;;;1.00;;
21297;SDS011;10808;48.010;11.326;2023-04-24T08:55:00;1.40;;;0.98;;
21297;SDS011;10808;48.010;11.326;2023-04-24T08:57:27;1.00;;;0.90;;
21297;SDS011;10808;48.010;11.326;2023-04-24T08:59:53;1.70;;;0.93;;
21297;SDS011;10808;48.010;11.326;2023-04-24T09:02:21;1.00;;;0.90;;
21297;SDS011;10808;48.010;11.326;2023-04-24T09:04:47;1.50;;;1.00;;
21297;SDS011;10808;48.010;11.326;2023-04-24T09:07:16;1.43;;;1.20;;
21297;SDS011;10808;48.010;11.326;2023-04-24T09:09:43;2.05;;;1.30;;
21297;SDS011;10808;48.010;11.326;2023-04-24T09:12:10;1.75;;;1.02;;
21297;SDS011;10808;48.010;11.326;2023-04-24T09:14:36;1.50;;;1.10;;
21297;SDS011;10808;48.010;11.326;2023-04-24T09:17:07;1.88;;;1.40;;
21297;SDS011;10808;48.010;11.326;2023-04-24T09:19:33;1.40;;;1.20;;
21297;SDS011;10808;48.010;11.326;2023-04-24T09:22:00;1.55;;;1.02;;
21297;SDS011;10808;48.010;11.326;2023-04-24T09:24:30;1.20;;;1.10;;
21297;SDS011;10808;48.010;11.326;2023-04-24T09:26:58;1.80;;;1.20;;
21297;SDS011;10808;48.010;11.326;2023-04-24T09:29:26;2.83;;;1.20;;
21297;SDS011;10808;48.010;11.326;2023-04-24T09:31:53;2.20;;;1.15;;
21297;SDS011;10808;48.010;11.326;2023-04-24T09:34:23;1.25;;;1.15;;
21297;SDS011;10808;48.010;11.326;2023-04-24T09:36:51;1.65;;;1.30;;
21297;SDS011;10808;48.010;11.326;2023-04-24T09:39:17;1.93;;;1.27;;
21297;SDS011;10808;48.010;11.326;2023-04-24T09:41:51;1.48;;;1.20;;
21297;SDS011;10808;48.010;11.326;2023-04-24T09:44:25;1.90;;;1.50;;
21297;SDS011;10808;48.010;11.326;2023-04-24T09:46:56;1.70;;;1.40;;
21297;SDS011;10808;48.010;11.326;2023-04-24T09:49:24;2.92;;;1.50;;
21297;SDS011;10808;48.010;11.326;2023-04-24T09:51:51;2.00;;;1.42;;
21297;SDS011;10808;48.010;11.326;2023-04-24T09:54:27;1.75;;;1.25;;
21297;SDS011;10808;48.010;11.326;2023-04-24T09:56:55;2.40;;;1.30;;
21297;SDS011;10808;48.010;11.326;2023-04-24T09:59:21;2.55;;;1.40;;
21297;SDS011;10808;48.010;11.326;2023-04-24T10:01:47;1.60;;;1.40;;
21297;SDS011;10808;48.010;11.326;2023-04-24T10:04:21;3.22;;;1.52;;
21297;SDS011;10808;48.010;11.326;2023-04-24T10:06:51;1.50;;;1.40;;
21297;SDS011;10808;48.010;11.326;2023-04-24T10:09:19;3.85;;;1.80;;
21297;SDS011;10808;48.010;11.326;2023-04-24T10:11:47;1.90;;;1.58;;
21297;SDS011;10808;48.010;11.326;2023-04-24T10:14:16;3.28;;;1.40;;
21297;SDS011;10808;48.010;11.326;2023-04-24T10:16:44;2.60;;;1.30;;
21297;SDS011;10808;48.010;11.326;2023-04-24T10:19:12;1.33;;;1.23;;
21297;SDS011;10808;48.010;11.326;2023-04-24T10:21:44;1.93;;;1.20;;
21297;SDS011;10808;48.010;11.326;2023-04-24T10:24:13;3.92;;;1.70;;
21297;SDS011;10808;48.010;11.326;2023-04-24T10:26:44;1.33;;;1.23;;
21297;SDS011;10808;48.010;11.326;2023-04-24T10:29:11;2.17;;;1.60;;
21297;SDS011;10808;48.010;11.326;2023-04-24T10:31:38;1.70;;;1.30;;
21297;SDS011;10808;48.010;11.326;2023-04-24T10:34:05;1.80;;;1.30;;
21297;SDS011;10808;48.010;11.326;2023-04-24T10:36:36;1.52;;;0.80;;
21297;SDS011;10808;48.010;11.326;2023-04-24T10:39:07;0.70;;;0.63;;
21297;SDS011;10808;48.010;11.326;2023-04-24T10:41:37;2.03;;;0.80;;
21297;SDS011;10808;48.010;11.326;2023-04-24T10:44:07;1.80;;;0.70;;
21297;SDS011;10808;48.010;11.326;2023-04-24T10:46:35;0.68;;;0.68;;
21297;SDS011;10808;48.010;11.326;2023-04-24T10:49:05;0.68;;;0.60;;
21297;SDS011;10808;48.010;11.326;2023-04-24T10:51:51;0.68;;;0.68;;
21297;SDS011;10808;48.010;11.326;2023-04-24T10:56:51;1.60;;;1.00;;
21297;SDS011;10808;48.010;11.326;2023-04-24T10:59:24;0.75;;;0.75;;
21297;SDS011;10808;48.010;11.326;2023-04-24T11:01:52;1.10;;;0.80;;
21297;SDS011;10808;48.010;11.326;2023-04-24T11:04:28;1.00;;;0.80;;
21297;SDS011;10808;48.010;11.326;2023-04-24T11:06:56;0.80;;;0.80;;
21297;SDS011;10808;48.010;11.326;2023-04-24T11:09:25;0.85;;;0.80;;
21297;SDS011;10808;48.010;11.326;2023-04-24T11:12:02;0.95;;;0.90;;
21297;SDS011;10808;48.010;11.326;2023-04-24T11:14:59;1.20;;;1.10;;
21297;SDS011;10808;48.010;11.326;2023-04-24T11:17:27;1.37;;;1.20;;
21297;SDS011;10808;48.010;11.326;2023-04-24T11:20:00;1.63;;;1.30;;
21297;SDS011;10808;48.010;11.326;2023-04-24T11:22:33;1.50;;;1.05;;
21297;SDS011;10808;48.010;11.326;2023-04-24T11:25:03;0.95;;;0.95;;
21297;SDS011;10808;48.010;11.326;2023-04-24T11:27:30;1.33;;;1.10;;
21297;SDS011;10808;48.010;11.326;2023-04-24T11:29:59;1.60;;;0.98;;
21297;SDS011;10808;48.010;11.326;2023-04-24T11:32:35;1.30;;;1.20;;
21297;SDS011;10808;48.010;11.326;2023-04-24T11:35:04;1.30;;;1.00;;
21297;SDS011;10808;48.010;11.326;2023-04-24T11:37:35;1.38;;;1.00;;
21297;SDS011;10808;48.010;11.326;2023-04-24T11:40:02;2.13;;;1.10;;
21297;SDS011;10808;48.010;11.326;2023-04-24T11:42:34;1.35;;;1.20;;
21297;SDS011;10808;48.010;11.326;2023-04-24T11:45:01;1.83;;;1.25;;
21297;SDS011;10808;48.010;11.326;2023-04-24T11:47:28;1.75;;;1.30;;
21297;SDS011;10808;48.010;11.326;2023-04-24T11:49:59;1.58;;;1.20;;
21297;SDS011;10808;48.010;11.326;2023-04-24T11:52:26;3.72;;;1.50;;
21297;SDS011;10808;48.010;11.326;2023-04-24T11:54:52;2.72;;;1.45;;
21297;SDS011;10808;48.010;11.326;2023-04-24T11:57:19;3.22;;;1.55;;
21297;SDS011;10808;48.010;11.326;2023-04-24T11:59:46;4.18;;;1.77;;
21297;SDS011;10808;48.010;11.326;2023-04-24T12:04:51;2.60;;;1.60;;
21297;SDS011;10808;48.010;11.326;2023-04-24T12:07:18;3.13;;;1.90;;
21297;SDS011;10808;48.010;11.326;2023-04-24T12:09:46;3.30;;;2.08;;
21297;SDS011;10808;48.010;11.326;2023-04-24T12:12:13;2.58;;;1.85;;
21297;SDS011;10808;48.010;11.326;2023-04-24T12:14:45;2.65;;;2.00;;
21297;SDS011;10808;48.010;11.326;2023-04-24T12:17:23;2.20;;;1.73;;
21297;SDS011;10808;48.010;11.326;2023-04-24T12:19:56;2.45;;;1.90;;
21297;SDS011;10808;48.010;11.326;2023-04-24T12:22:28;3.72;;;1.95;;
21297;SDS011;10808;48.010;11.326;2023-04-24T12:25:09;3.40;;;1.95;;
21297;SDS011;10808;48.010;11.326;2023-04-24T12:27:36;3.78;;;2.05;;
21297;SDS011;10808;48.010;11.326;2023-04-24T12:30:03;3.13;;;1.92;;
21297;SDS011;10808;48.010;11.326;2023-04-24T12:32:31;2.70;;;2.20;;
21297;SDS011;10808;48.010;11.326;2023-04-24T12:35:00;2.70;;;2.20;;
21297;SDS011;10808;48.010;11.326;2023-04-24T12:37:32;3.25;;;2.03;;
21297;SDS011;10808;48.010;11.326;2023-04-24T12:39:59;4.47;;;2.28;;
21297;SDS011;10808;48.010;11.326;2023-04-24T12:42:27;3.60;;;1.65;;
21297;SDS011;10808;48.010;11.326;2023-04-24T12:44:58;2.13;;;1.90;;
21297;SDS011;10808;48.010;11.326;2023-04-24T12:47:28;2.25;;;1.65;;
21297;SDS011;10808;48.010;11.326;2023-04-24T12:49:55;2.95;;;1.40;;
21297;SDS011;10808;48.010;11.326;2023-04-24T12:52:22;2.15;;;1.83;;
21297;SDS011;10808;48.010;11.326;2023-04-24T12:54:55;2.50;;;1.50;;
21297;SDS011;10808;48.010;11.326;2023-04-24T12:57:22;1.85;;;1.60;;
21297;SDS011;10808;48.010;11.326;2023-04-24T12:59:49;3.03;;;1.50;;
21297;SDS011;10808;48.010;11.326;2023-04-24T13:02:16;2.05;;;1.60;;
21297;SDS011;10808;48.010;11.326;2023-04-24T13:04:45;1.80;;;1.60;;
21297;SDS011;10808;48.010;11.326;2023-04-24T13:07:12;2.20;;;1.70;;
21297;SDS011;10808;48.010;11.326;2023-04-24T13:09:40;2.13;;;1.70;;
21297;SDS011;10808;48.010;11.326;2023-04-24T13:12:07;3.05;;;1.73;;
21297;SDS011;10808;48.010;11.326;2023-04-24T13:14:34;3.08;;;1.50;;
21297;SDS011;10808;48.010;11.326;2023-04-24T13:17:00;3.03;;;2.13;;
21297;SDS011;10808;48.010;11.326;2023-04-24T13:19:26;2.53;;;1.70;;
21297;SDS011;10808;48.010;11.326;2023-04-24T13:21:56;4.15;;;1.70;;
21297;SDS011;10808;48.010;11.326;2023-04-24T13:24:23;3.38;;;1.98;;
21297;SDS011;10808;48.010;11.326;2023-04-24T13:26:52;2.58;;;2.00;;
21297;SDS011;10808;48.010;11.326;2023-04-24T13:29:18;3.05;;;2.00;;
21297;SDS011;10808;48.010;11.326;2023-04-24T13:31:49;2.17;;;1.80;;
21297;SDS011;10808;48.010;11.326;2023-04-24T13:34:16;3.70;;;2.00;;
21297;SDS011;10808;48.010;11.326;2023-04-24T13:36:45;3.75;;;2.17;;
21297;SDS011;10808;48.010;11.326;2023-04-24T13:39:11;3.97;;;2.20;;
21297;SDS011;10808;48.010;11.326;2023-04-24T13:41:38;2.25;;;1.80;;
21297;SDS011;10808;48.010;11.326;2023-04-24T13:44:05;3.05;;;2.05;;
21297;SDS011;10808;48.010;11.326;2023-04-24T13:46:31;3.00;;;2.10;;
21297;SDS011;10808;48.010;11.326;2023-04-24T13:48:58;2.70;;;2.00;;
21297;SDS011;10808;48.010;11.326;2023-04-24T13:51:27;3.10;;;1.85;;
21297;SDS011;10808;48.010;11.326;2023-04-24T13:53:53;3.33;;;1.90;;
21297;SDS011;10808;48.010;11.326;2023-04-24T13:56:20;4.18;;;1.70;;
21297;SDS011;10808;48.010;11.326;2023-04-24T13:58:47;2.83;;;2.00;;
21297;SDS011;10808;48.010;11.326;2023-04-24T14:01:14;2.85;;;1.90;;
21297;SDS011;10808;48.010;11.326;2023-04-24T14:03:41;2.80;;;1.70;;
21297;SDS011;10808;48.010;11.326;2023-04-24T14:06:08;2.22;;;1.70;;
21297;SDS011;10808;48.010;11.326;2023-04-24T14:08:34;3.65;;;1.92;;
21297;SDS011;10808;48.010;11.326;2023-04-24T14:11:00;3.03;;;1.80;;
21297;SDS011;10808;48.010;11.326;2023-04-24T14:13:27;3.72;;;1.80;;
21297;SDS011;10808;48.010;11.326;2023-04-24T14:15:53;2.50;;;1.58;;
21297;SDS011;10808;48.010;11.326;2023-04-24T14:18:19;2.50;;;1.80;;
21297;SDS011;10808;48.010;11.326;2023-04-24T14:20:45;2.70;;;1.90;;
21297;SDS011;10808;48.010;11.326;2023-04-24T14:23:11;3.72;;;1.58;;
21297;SDS011;10808;48.010;11.326;2023-04-24T14:25:37;3.50;;;1.70;;
21297;SDS011;10808;48.010;11.326;2023-04-24T14:28:03;3.37;;;1.70;;
21297;SDS011;10808;48.010;11.326;2023-04-24T14:30:30;2.95;;;1.70;;
21297;SDS011;10808;48.010;11.326;2023-04-24T14:32:56;2.58;;;1.70;;
21297;SDS011;10808;48.010;11.326;2023-04-24T14:35:22;2.33;;;1.80;;
21297;SDS011;10808;48.010;11.326;2023-04-24T14:37:48;2.20;;;1.80;;